createdAt,value
2017-12-21T05:00:46.661Z,0
2017-12-21T05:01:12.153Z,0
2017-12-21T05:01:37.651Z,0
2017-12-21T05:02:03.156Z,0
2017-12-21T05:02:28.656Z,0
2017-12-21T05:02:54.147Z,0
2017-12-21T05:03:19.638Z,0
2017-12-21T05:03:45.120Z,0
2017-12-21T05:04:10.587Z,0
2017-12-21T05:04:36.063Z,0
2017-12-21T05:05:01.559Z,0
2017-12-21T05:05:27.089Z,0
2017-12-21T05:05:52.556Z,0
2017-12-21T05:06:18.088Z,0
2017-12-21T05:06:43.553Z,0
2017-12-21T05:07:09.049Z,0
2017-12-21T05:07:34.488Z,0
2017-12-21T05:07:59.988Z,0
2017-12-21T05:08:25.505Z,0
2017-12-21T05:08:51.008Z,0
2017-12-21T05:09:16.489Z,0
2017-12-21T05:09:42.026Z,0
2017-12-21T05:10:07.497Z,0
2017-12-21T05:10:32.978Z,0
2017-12-21T05:10:58.465Z,0
2017-12-21T05:11:23.965Z,0
2017-12-21T05:11:49.470Z,0
2017-12-21T05:12:14.959Z,0
2017-12-21T05:12:40.453Z,0
2017-12-21T05:13:05.979Z,0
2017-12-21T05:13:31.480Z,0
2017-12-21T05:13:56.958Z,0
2017-12-21T05:14:22.457Z,0
2017-12-21T05:14:47.989Z,0
2017-12-21T05:15:13.491Z,0
2017-12-21T05:15:39.040Z,0
2017-12-21T05:16:04.521Z,0
2017-12-21T05:16:30.013Z,0
2017-12-21T05:16:55.500Z,0
2017-12-21T05:17:20.995Z,0
2017-12-21T05:17:46.480Z,0
2017-12-21T05:18:11.985Z,0
2017-12-21T05:18:37.479Z,0
2017-12-21T05:19:02.947Z,0
2017-12-21T05:19:28.441Z,0
2017-12-21T05:19:53.912Z,0
2017-12-21T05:20:19.374Z,0
2017-12-21T05:20:44.878Z,0
2017-12-21T05:21:10.389Z,0
2017-12-21T05:21:35.865Z,0
2017-12-21T05:22:01.333Z,0
2017-12-21T05:22:26.817Z,0
2017-12-21T05:22:52.300Z,0
2017-12-21T05:23:17.794Z,0
2017-12-21T05:23:43.292Z,0
2017-12-21T05:24:08.797Z,0
2017-12-21T05:24:34.293Z,0
2017-12-21T05:24:59.797Z,0
2017-12-21T05:26:08.520Z,0
2017-12-21T05:26:34.030Z,0
2017-12-21T05:26:59.525Z,0
2017-12-21T05:27:25.022Z,0
2017-12-21T05:27:50.521Z,0
2017-12-21T05:28:16.017Z,0
2017-12-21T05:28:41.503Z,0
2017-12-21T05:29:07.013Z,0
2017-12-21T05:29:32.494Z,0
2017-12-21T05:29:57.983Z,0
2017-12-21T05:31:16.901Z,0
2017-12-21T05:31:42.399Z,0
2017-12-21T05:32:07.881Z,0
2017-12-21T05:32:33.342Z,0
2017-12-21T05:32:58.827Z,0
2017-12-21T05:33:24.328Z,0
2017-12-21T05:33:49.827Z,0
2017-12-21T05:34:15.334Z,0
2017-12-21T05:34:40.825Z,0
2017-12-21T05:35:06.303Z,0
2017-12-21T05:35:31.789Z,0
2017-12-21T05:35:57.254Z,0
2017-12-21T05:36:22.769Z,0
2017-12-21T05:36:48.260Z,0
2017-12-21T05:37:13.763Z,0
2017-12-21T05:37:39.281Z,0
2017-12-21T05:38:04.764Z,0
2017-12-21T05:38:30.294Z,0
2017-12-21T05:38:55.785Z,0
2017-12-21T05:39:59.371Z,0
2017-12-21T05:40:24.883Z,0
2017-12-21T05:40:50.385Z,0
2017-12-21T05:41:15.880Z,0
2017-12-21T05:41:41.339Z,0
2017-12-21T05:42:06.796Z,0
2017-12-21T05:42:32.325Z,0
2017-12-21T05:42:57.782Z,0
2017-12-21T05:43:23.272Z,0
2017-12-21T05:43:48.768Z,0
2017-12-21T05:44:14.257Z,0
2017-12-21T05:44:39.744Z,0
2017-12-21T05:45:05.248Z,0
2017-12-21T05:45:30.710Z,0
2017-12-21T05:45:56.217Z,0
2017-12-21T05:46:21.714Z,0
2017-12-21T05:46:47.215Z,0
2017-12-21T05:47:12.705Z,0
2017-12-21T05:47:38.239Z,0
2017-12-21T05:48:03.766Z,0
2017-12-21T05:48:29.300Z,0
2017-12-21T05:48:54.780Z,0
2017-12-21T05:49:20.258Z,0
2017-12-21T05:49:45.758Z,0
2017-12-21T05:50:11.229Z,0
2017-12-21T05:50:36.701Z,0
2017-12-21T05:51:02.172Z,0
2017-12-21T05:51:27.646Z,0
2017-12-21T05:51:53.131Z,0
2017-12-21T05:52:18.621Z,0
2017-12-21T05:52:44.127Z,0
2017-12-21T05:53:09.610Z,0
2017-12-21T05:54:28.517Z,0
2017-12-21T05:54:54.026Z,0
2017-12-21T05:55:19.520Z,0
2017-12-21T05:55:45.009Z,0
2017-12-21T05:56:10.541Z,0
2017-12-21T05:56:35.999Z,0
2017-12-21T05:57:01.495Z,0
2017-12-21T05:57:27.020Z,0
2017-12-21T05:57:52.498Z,0
2017-12-21T05:58:17.979Z,0
2017-12-21T05:59:36.912Z,0
2017-12-21T06:00:02.402Z,0
2017-12-21T06:00:27.900Z,0
2017-12-21T06:00:53.395Z,0
2017-12-21T06:01:18.888Z,0
2017-12-21T06:01:44.392Z,0
2017-12-21T06:02:09.882Z,0
2017-12-21T06:02:35.359Z,0
2017-12-21T06:03:00.838Z,0
2017-12-21T06:03:26.332Z,0
2017-12-21T06:03:51.802Z,0
2017-12-21T06:04:17.293Z,0
2017-12-21T06:04:42.772Z,0
2017-12-21T06:05:08.257Z,0
2017-12-21T06:05:33.768Z,0
2017-12-21T06:05:59.285Z,0
2017-12-21T06:06:24.764Z,0
2017-12-21T06:06:50.243Z,0
2017-12-21T06:07:15.745Z,0
2017-12-21T06:07:41.229Z,0
2017-12-21T06:08:06.704Z,0
2017-12-21T06:08:32.226Z,0
2017-12-21T06:08:57.733Z,0
2017-12-21T06:09:23.223Z,0
2017-12-21T06:09:48.699Z,0
2017-12-21T06:10:14.180Z,0
2017-12-21T06:10:39.677Z,0
2017-12-21T06:11:05.179Z,0
2017-12-21T06:11:30.675Z,0
2017-12-21T06:11:56.183Z,0
2017-12-21T06:12:21.671Z,0
2017-12-21T06:12:47.171Z,0
2017-12-21T06:13:12.724Z,0
2017-12-21T06:13:38.219Z,0
2017-12-21T06:14:03.711Z,0
2017-12-21T06:14:29.202Z,0
2017-12-21T06:14:54.677Z,0
2017-12-21T06:15:58.282Z,0
2017-12-21T06:16:23.786Z,0
2017-12-21T06:16:49.288Z,0
2017-12-21T06:17:14.792Z,0
2017-12-21T06:17:40.297Z,0
2017-12-21T06:18:05.791Z,0
2017-12-21T06:18:31.285Z,0
2017-12-21T06:18:56.797Z,0
2017-12-21T06:19:22.279Z,0
2017-12-21T06:19:47.813Z,0
2017-12-21T06:20:13.295Z,0
2017-12-21T06:20:38.788Z,0
2017-12-21T06:21:04.274Z,0
2017-12-21T06:21:29.787Z,0
2017-12-21T06:21:55.283Z,0
2017-12-21T06:22:20.783Z,0
2017-12-21T06:22:46.250Z,0
2017-12-21T06:23:11.730Z,0
2017-12-21T06:23:37.189Z,0
2017-12-21T06:24:02.742Z,0
2017-12-21T06:24:28.211Z,0
2017-12-21T06:24:53.719Z,0
2017-12-21T06:25:19.231Z,0
2017-12-21T06:25:44.747Z,0
2017-12-21T06:26:10.249Z,0
2017-12-21T06:26:35.733Z,0
2017-12-21T06:27:01.210Z,0
2017-12-21T06:27:26.733Z,0
2017-12-21T06:27:52.225Z,0
2017-12-21T06:28:17.692Z,0
2017-12-21T06:28:43.233Z,0
2017-12-21T06:29:08.723Z,0
2017-12-21T06:29:34.217Z,0
2017-12-21T06:29:59.720Z,0
2017-12-21T06:30:25.191Z,0
2017-12-21T06:30:50.702Z,0
2017-12-21T06:31:16.181Z,0
2017-12-21T06:31:41.707Z,0
2017-12-21T06:32:07.169Z,0
2017-12-21T06:32:32.679Z,0
2017-12-21T06:32:58.141Z,0
2017-12-21T06:33:23.667Z,0
2017-12-21T06:33:49.147Z,0
2017-12-21T06:34:14.618Z,0
2017-12-21T06:34:40.201Z,0
2017-12-21T06:35:05.690Z,0
2017-12-21T06:35:31.161Z,0
2017-12-21T06:35:56.618Z,0
2017-12-21T06:36:22.099Z,0
2017-12-21T06:36:47.595Z,0
2017-12-21T06:37:13.102Z,0
2017-12-21T06:37:38.595Z,0
2017-12-21T06:38:04.088Z,0
2017-12-21T06:38:29.590Z,0
2017-12-21T06:38:55.097Z,0
2017-12-21T06:39:20.593Z,0
2017-12-21T06:39:46.120Z,0
2017-12-21T06:40:11.577Z,0
2017-12-21T06:40:37.067Z,0
2017-12-21T06:41:02.619Z,0
2017-12-21T06:41:28.105Z,0
2017-12-21T06:41:53.597Z,0
2017-12-21T06:42:19.101Z,0
2017-12-21T06:42:44.631Z,0
2017-12-21T06:43:10.131Z,0
2017-12-21T06:43:35.616Z,0
2017-12-21T06:44:01.109Z,0
2017-12-21T06:44:26.579Z,0
2017-12-21T06:44:52.058Z,0
2017-12-21T06:45:17.594Z,0
2017-12-21T06:45:43.133Z,0
2017-12-21T06:46:08.679Z,0
2017-12-21T06:46:34.199Z,0
2017-12-21T06:46:59.749Z,0
2017-12-21T06:47:25.270Z,0
2017-12-21T06:47:50.797Z,0
2017-12-21T06:48:16.264Z,0
2017-12-21T06:48:41.801Z,0
2017-12-21T06:49:07.324Z,0
2017-12-21T06:49:32.787Z,0
2017-12-21T06:49:58.306Z,0
2017-12-21T06:50:23.846Z,0
2017-12-21T06:50:49.522Z,0
2017-12-21T06:51:15.028Z,0
2017-12-21T06:51:40.526Z,0
2017-12-21T06:52:06.037Z,0
2017-12-21T06:52:31.528Z,0
2017-12-21T06:52:57.005Z,0
2017-12-21T06:53:22.545Z,0
2017-12-21T06:53:48.056Z,0
2017-12-21T06:54:13.542Z,0
2017-12-21T06:55:37.542Z,0
2017-12-21T06:56:03.042Z,0
2017-12-21T06:56:28.536Z,0
2017-12-21T06:56:54.004Z,0
2017-12-21T06:57:19.497Z,0
2017-12-21T06:58:23.093Z,0
2017-12-21T06:58:48.567Z,0
2017-12-21T06:59:14.083Z,0
2017-12-21T06:59:39.551Z,0
2017-12-21T07:00:05.069Z,0
2017-12-21T07:00:30.594Z,0
2017-12-21T07:00:56.115Z,0
2017-12-21T07:01:21.762Z,0
2017-12-21T07:01:47.265Z,0
2017-12-21T07:02:12.641Z,0
2017-12-21T07:02:38.162Z,0
2017-12-21T07:03:03.592Z,0
2017-12-21T07:03:29.057Z,0
2017-12-21T07:03:54.665Z,0
2017-12-21T07:04:20.097Z,0
2017-12-21T07:04:45.550Z,0
2017-12-21T07:05:11.020Z,0
2017-12-21T07:05:36.470Z,0
2017-12-21T07:06:01.953Z,0
2017-12-21T07:06:27.456Z,4
2017-12-21T07:06:52.939Z,4
2017-12-21T07:07:18.355Z,4
2017-12-21T07:07:43.839Z,4
2017-12-21T07:08:09.304Z,4
2017-12-21T07:08:34.759Z,4
2017-12-21T07:09:00.269Z,4
2017-12-21T07:09:25.669Z,0
2017-12-21T07:09:51.180Z,4
2017-12-21T07:10:16.653Z,4
2017-12-21T07:10:42.114Z,4
2017-12-21T07:11:07.572Z,8
2017-12-21T07:11:33.085Z,8
2017-12-21T07:11:58.521Z,8
2017-12-21T07:12:23.980Z,8
2017-12-21T07:12:49.526Z,8
2017-12-21T07:13:14.971Z,4
2017-12-21T07:13:40.439Z,8
2017-12-21T07:14:05.883Z,8
2017-12-21T07:14:31.375Z,8
2017-12-21T07:14:56.833Z,8
2017-12-21T07:15:22.335Z,8
2017-12-21T07:15:47.761Z,8
2017-12-21T07:16:13.232Z,8
2017-12-21T07:16:38.749Z,12
2017-12-21T07:17:04.148Z,12
2017-12-21T07:17:29.680Z,12
2017-12-21T07:17:55.114Z,16
2017-12-21T07:18:20.628Z,12
2017-12-21T07:18:46.076Z,12
2017-12-21T07:19:11.527Z,16
2017-12-21T07:19:37.003Z,16
2017-12-21T07:20:02.465Z,16
2017-12-21T07:20:27.926Z,16
2017-12-21T07:20:53.396Z,16
2017-12-21T07:21:18.844Z,16
2017-12-21T07:21:44.389Z,20
2017-12-21T07:22:09.830Z,24
2017-12-21T07:22:35.312Z,20
2017-12-21T07:23:00.791Z,24
2017-12-21T07:23:26.308Z,24
2017-12-21T07:23:51.765Z,24
2017-12-21T07:24:17.228Z,24
2017-12-21T07:24:42.731Z,24
2017-12-21T07:25:08.215Z,24
2017-12-21T07:25:33.870Z,28
2017-12-21T07:25:59.311Z,28
2017-12-21T07:26:24.794Z,28
2017-12-21T07:26:50.320Z,32
2017-12-21T07:27:15.741Z,32
2017-12-21T07:27:41.198Z,36
2017-12-21T07:28:06.696Z,36
2017-12-21T07:28:32.110Z,36
2017-12-21T07:28:57.588Z,40
2017-12-21T07:29:23.058Z,40
2017-12-21T07:29:48.527Z,40
2017-12-21T07:30:14.068Z,40
2017-12-21T07:30:39.483Z,48
2017-12-21T07:31:04.971Z,44
2017-12-21T07:31:30.503Z,48
2017-12-21T07:31:55.903Z,48
2017-12-21T07:32:21.413Z,48
2017-12-21T07:32:46.849Z,48
2017-12-21T07:33:12.265Z,48
2017-12-21T07:33:37.766Z,52
2017-12-21T07:34:03.204Z,48
2017-12-21T07:34:28.698Z,52
2017-12-21T07:34:54.209Z,52
2017-12-21T07:35:19.645Z,56
2017-12-21T07:35:45.151Z,56
2017-12-21T07:36:10.556Z,56
2017-12-21T07:36:36.057Z,60
2017-12-21T07:37:01.543Z,68
2017-12-21T07:37:27.036Z,68
2017-12-21T07:37:52.501Z,68
2017-12-21T07:38:17.979Z,72
2017-12-21T07:38:43.481Z,76
2017-12-21T07:39:08.935Z,72
2017-12-21T07:39:34.405Z,80
2017-12-21T07:39:59.879Z,80
2017-12-21T07:40:25.354Z,80
2017-12-21T07:40:50.836Z,88
2017-12-21T07:41:16.339Z,84
2017-12-21T07:41:41.827Z,84
2017-12-21T07:42:07.345Z,88
2017-12-21T07:42:32.864Z,92
2017-12-21T07:43:51.811Z,100
2017-12-21T07:44:17.370Z,100
2017-12-21T07:44:42.905Z,108
2017-12-21T07:45:08.390Z,100
2017-12-21T07:45:33.894Z,104
2017-12-21T07:45:59.380Z,104
2017-12-21T07:46:24.865Z,100
2017-12-21T07:46:50.397Z,100
2017-12-21T07:47:15.925Z,108
2017-12-21T07:47:41.387Z,112
2017-12-21T07:48:06.893Z,112
2017-12-21T07:48:32.401Z,112
2017-12-21T07:48:57.898Z,108
2017-12-21T07:49:23.383Z,124
2017-12-21T07:49:48.856Z,124
2017-12-21T07:50:14.352Z,136
2017-12-21T07:50:39.806Z,136
2017-12-21T07:51:05.276Z,140
2017-12-21T07:51:30.764Z,144
2017-12-21T07:51:56.256Z,156
2017-12-21T07:52:21.772Z,164
2017-12-21T07:52:47.308Z,168
2017-12-21T07:53:56.981Z,184
2017-12-21T07:54:22.476Z,180
2017-12-21T07:54:47.979Z,188
2017-12-21T07:55:13.422Z,184
2017-12-21T07:55:38.931Z,204
2017-12-21T07:56:04.429Z,208
2017-12-21T07:56:29.927Z,220
2017-12-21T07:56:55.399Z,228
2017-12-21T07:57:20.871Z,240
2017-12-21T07:57:46.361Z,256
2017-12-21T07:58:11.854Z,272
2017-12-21T07:58:37.355Z,284
2017-12-21T07:59:02.855Z,284
2017-12-21T07:59:28.351Z,288
2017-12-21T07:59:53.853Z,288
2017-12-21T08:00:19.339Z,292
2017-12-21T08:00:44.827Z,288
2017-12-21T08:01:10.317Z,304
2017-12-21T08:01:35.825Z,308
2017-12-21T08:02:01.286Z,312
2017-12-21T08:02:26.814Z,328
2017-12-21T08:02:52.301Z,336
2017-12-21T08:03:17.782Z,340
2017-12-21T08:03:43.276Z,344
2017-12-21T08:04:08.739Z,352
2017-12-21T08:04:34.237Z,368
2017-12-21T08:04:59.728Z,376
2017-12-21T08:05:25.403Z,376
2017-12-21T08:05:50.912Z,392
2017-12-21T08:07:14.934Z,408
2017-12-21T08:07:40.444Z,416
2017-12-21T08:08:05.936Z,436
2017-12-21T08:08:31.458Z,432
2017-12-21T08:08:56.974Z,424
2017-12-21T08:10:10.716Z,412
2017-12-21T08:10:36.204Z,428
2017-12-21T08:11:01.685Z,448
2017-12-21T08:11:27.183Z,468
2017-12-21T08:11:52.647Z,492
2017-12-21T08:12:18.101Z,492
2017-12-21T08:12:43.567Z,476
2017-12-21T08:13:09.177Z,456
2017-12-21T08:13:34.637Z,456
2017-12-21T08:14:00.157Z,460
2017-12-21T08:14:25.651Z,464
2017-12-21T08:14:51.165Z,472
2017-12-21T08:15:16.669Z,476
2017-12-21T08:16:29.981Z,504
2017-12-21T08:16:55.502Z,520
2017-12-21T08:17:20.998Z,528
2017-12-21T08:17:46.485Z,532
2017-12-21T08:18:11.979Z,548
2017-12-21T08:18:37.455Z,572
2017-12-21T08:19:02.976Z,600
2017-12-21T08:19:28.628Z,636
2017-12-21T08:20:52.651Z,712
2017-12-21T08:21:18.138Z,736
2017-12-21T08:21:43.621Z,796
2017-12-21T08:22:09.158Z,804
2017-12-21T08:22:34.650Z,812
2017-12-21T08:23:00.154Z,832
2017-12-21T08:23:25.641Z,816
2017-12-21T08:23:51.132Z,832
2017-12-21T08:24:16.601Z,812
2017-12-21T08:24:42.085Z,756
2017-12-21T08:25:07.558Z,780
2017-12-21T08:25:33.016Z,792
2017-12-21T08:25:58.509Z,768
2017-12-21T08:26:23.984Z,784
2017-12-21T08:26:49.507Z,740
2017-12-21T08:27:14.965Z,748
2017-12-21T08:27:40.495Z,748
2017-12-21T08:28:05.998Z,752
2017-12-21T08:28:31.455Z,772
2017-12-21T08:28:56.957Z,816
2017-12-21T08:29:22.538Z,852
2017-12-21T08:29:47.992Z,856
2017-12-21T08:30:13.487Z,868
2017-12-21T08:30:38.980Z,856
2017-12-21T08:31:04.481Z,844
2017-12-21T08:31:29.978Z,832
2017-12-21T08:31:55.498Z,820
2017-12-21T08:32:20.960Z,868
2017-12-21T08:32:46.393Z,892
2017-12-21T08:33:11.846Z,892
2017-12-21T08:33:37.330Z,864
2017-12-21T08:34:02.816Z,832
2017-12-21T08:34:28.261Z,804
2017-12-21T08:34:53.729Z,780
2017-12-21T08:35:19.181Z,816
2017-12-21T08:35:44.640Z,788
2017-12-21T08:36:10.128Z,792
2017-12-21T08:36:35.569Z,800
2017-12-21T08:37:01.032Z,808
2017-12-21T08:37:26.570Z,816
2017-12-21T08:37:52.025Z,804
2017-12-21T08:38:17.504Z,796
2017-12-21T08:38:42.954Z,780
2017-12-21T08:39:08.453Z,800
2017-12-21T08:39:33.965Z,788
2017-12-21T08:39:59.461Z,768
2017-12-21T08:40:24.934Z,732
2017-12-21T08:40:50.409Z,696
2017-12-21T08:41:15.882Z,676
2017-12-21T08:41:41.327Z,648
2017-12-21T08:42:06.811Z,652
2017-12-21T08:42:32.310Z,668
2017-12-21T08:42:57.804Z,680
2017-12-21T08:43:23.283Z,692
2017-12-21T08:43:48.773Z,712
2017-12-21T08:44:14.293Z,760
2017-12-21T08:44:39.811Z,784
2017-12-21T08:45:05.304Z,836
2017-12-21T08:45:30.786Z,860
2017-12-21T08:45:56.299Z,892
2017-12-21T08:46:21.808Z,892
2017-12-21T08:46:47.290Z,884
2017-12-21T08:47:12.766Z,852
2017-12-21T08:47:38.296Z,872
2017-12-21T08:48:03.777Z,840
2017-12-21T08:48:29.273Z,912
2017-12-21T08:48:54.761Z,988
2017-12-21T08:49:20.247Z,1024
2017-12-21T08:49:45.729Z,1072
2017-12-21T08:50:11.284Z,1180
2017-12-21T08:50:36.758Z,1232
2017-12-21T08:51:02.266Z,1268
2017-12-21T08:51:27.710Z,1276
2017-12-21T08:51:53.225Z,1248
2017-12-21T08:52:18.714Z,1208
2017-12-21T08:52:44.221Z,1188
2017-12-21T08:53:09.708Z,1188
2017-12-21T08:53:35.255Z,1224
2017-12-21T08:54:00.792Z,1240
2017-12-21T08:54:26.300Z,1208
2017-12-21T08:54:51.853Z,1224
2017-12-21T08:55:17.339Z,1236
2017-12-21T08:55:42.843Z,1204
2017-12-21T08:56:08.352Z,1152
2017-12-21T08:56:33.804Z,1116
2017-12-21T08:56:59.286Z,1140
2017-12-21T08:57:24.798Z,1196
2017-12-21T08:57:50.252Z,1220
2017-12-21T08:58:15.774Z,1268
2017-12-21T08:58:41.251Z,1268
2017-12-21T08:59:06.751Z,1284
2017-12-21T08:59:32.267Z,1300
2017-12-21T08:59:57.768Z,1252
2017-12-21T09:00:23.272Z,1244
2017-12-21T09:00:48.774Z,1200
2017-12-21T09:01:14.268Z,1156
2017-12-21T09:01:39.749Z,1140
2017-12-21T09:02:05.281Z,1156
2017-12-21T09:02:30.777Z,1168
2017-12-21T09:02:56.294Z,1172
2017-12-21T09:03:21.788Z,1184
2017-12-21T09:03:47.261Z,1188
2017-12-21T09:04:12.729Z,1184
2017-12-21T09:04:38.224Z,1172
2017-12-21T09:05:03.704Z,1140
2017-12-21T09:05:29.232Z,1132
2017-12-21T09:05:54.716Z,1168
2017-12-21T09:06:20.202Z,1200
2017-12-21T09:06:45.728Z,1188
2017-12-21T09:07:11.225Z,1204
2017-12-21T09:07:36.708Z,1248
2017-12-21T09:08:02.180Z,1260
2017-12-21T09:08:27.680Z,1264
2017-12-21T09:08:53.169Z,1224
2017-12-21T09:09:56.976Z,1276
2017-12-21T09:10:22.459Z,1264
2017-12-21T09:10:47.952Z,1264
2017-12-21T09:11:13.467Z,1288
2017-12-21T09:11:38.986Z,1320
2017-12-21T09:12:04.475Z,1344
2017-12-21T09:12:29.964Z,1352
2017-12-21T09:12:55.454Z,1264
2017-12-21T09:13:20.954Z,1184
2017-12-21T09:13:46.444Z,1164
2017-12-21T09:14:11.945Z,1148
2017-12-21T09:14:37.457Z,1144
2017-12-21T09:15:02.955Z,1144
2017-12-21T09:15:28.493Z,1148
2017-12-21T09:15:53.973Z,1144
2017-12-21T09:16:19.450Z,1160
2017-12-21T09:16:44.951Z,1152
2017-12-21T09:17:10.439Z,1160
2017-12-21T09:17:35.922Z,1164
2017-12-21T09:18:01.439Z,1192
2017-12-21T09:18:26.911Z,1180
2017-12-21T09:18:52.436Z,1216
2017-12-21T09:19:17.940Z,1268
2017-12-21T09:19:43.442Z,1256
2017-12-21T09:20:08.970Z,1252
2017-12-21T09:20:34.471Z,1256
2017-12-21T09:20:59.983Z,1272
2017-12-21T09:21:25.506Z,1292
2017-12-21T09:21:51.001Z,1280
2017-12-21T09:22:16.501Z,1244
2017-12-21T09:22:42.014Z,1236
2017-12-21T09:23:07.508Z,1240
2017-12-21T09:23:33.016Z,1264
2017-12-21T09:23:58.511Z,1316
2017-12-21T09:24:24.036Z,1316
2017-12-21T09:24:49.524Z,1288
2017-12-21T09:25:15.032Z,1320
2017-12-21T09:25:40.530Z,1300
2017-12-21T09:26:06.026Z,1340
2017-12-21T09:26:31.527Z,1388
2017-12-21T09:26:57.052Z,1404
2017-12-21T09:27:22.571Z,1388
2017-12-21T09:27:48.092Z,1408
2017-12-21T09:28:13.593Z,1452
2017-12-21T09:28:39.110Z,1452
2017-12-21T09:29:04.599Z,1384
2017-12-21T09:29:30.089Z,1420
2017-12-21T09:29:55.563Z,1432
2017-12-21T09:30:21.067Z,1420
2017-12-21T09:30:46.550Z,1488
2017-12-21T09:31:12.044Z,1464
2017-12-21T09:31:37.563Z,1464
2017-12-21T09:32:03.038Z,1416
2017-12-21T09:32:28.531Z,1344
2017-12-21T09:32:54.021Z,1324
2017-12-21T09:33:19.523Z,1392
2017-12-21T09:33:45.016Z,1508
2017-12-21T09:34:10.519Z,1560
2017-12-21T09:34:36.017Z,1564
2017-12-21T09:35:01.534Z,1604
2017-12-21T09:35:26.983Z,1608
2017-12-21T09:35:52.567Z,1648
2017-12-21T09:36:18.043Z,1652
2017-12-21T09:36:43.532Z,1700
2017-12-21T09:38:02.519Z,1644
2017-12-21T09:38:27.980Z,1688
2017-12-21T09:38:53.474Z,1684
2017-12-21T09:39:57.865Z,1860
2017-12-21T09:40:23.360Z,1796
2017-12-21T09:40:48.849Z,1788
2017-12-21T09:41:14.330Z,1812
2017-12-21T09:41:39.823Z,1808
2017-12-21T09:42:05.288Z,1772
2017-12-21T09:42:30.779Z,1828
2017-12-21T09:42:56.237Z,1916
2017-12-21T09:43:21.702Z,1952
2017-12-21T09:43:47.148Z,2044
2017-12-21T09:44:12.665Z,2100
2017-12-21T09:44:38.140Z,2088
2017-12-21T09:45:03.636Z,2096
2017-12-21T09:45:29.093Z,1980
2017-12-21T09:45:54.548Z,1900
2017-12-21T09:46:20.013Z,1888
2017-12-21T09:46:45.499Z,1884
2017-12-21T09:47:10.952Z,1764
2017-12-21T09:47:36.452Z,1712
2017-12-21T09:48:01.934Z,1632
2017-12-21T09:48:27.425Z,1568
2017-12-21T09:49:46.364Z,1380
2017-12-21T09:50:11.848Z,1312
2017-12-21T09:50:37.338Z,1284
2017-12-21T09:51:02.817Z,1212
2017-12-21T09:51:28.322Z,1200
2017-12-21T09:51:53.772Z,1200
2017-12-21T09:52:19.326Z,1200
2017-12-21T09:52:44.739Z,1208
2017-12-21T09:53:10.238Z,1236
2017-12-21T09:53:35.759Z,1160
2017-12-21T09:54:01.257Z,1176
2017-12-21T09:54:26.831Z,1128
2017-12-21T09:54:52.361Z,1148
2017-12-21T09:55:17.851Z,1136
2017-12-21T09:55:43.334Z,1180
2017-12-21T09:56:08.809Z,1248
2017-12-21T09:56:34.320Z,1288
2017-12-21T09:56:59.807Z,1288
2017-12-21T09:57:25.326Z,1272
2017-12-21T09:57:50.816Z,1264
2017-12-21T09:58:16.300Z,1312
2017-12-21T09:58:41.848Z,1308
2017-12-21T09:59:07.318Z,1376
2017-12-21T09:59:32.856Z,1372
2017-12-21T09:59:58.309Z,1388
2017-12-21T10:00:23.801Z,1432
2017-12-21T10:00:49.304Z,1464
2017-12-21T10:01:14.799Z,1464
2017-12-21T10:01:40.285Z,1568
2017-12-21T10:02:05.782Z,1572
2017-12-21T10:02:31.305Z,1556
2017-12-21T10:02:56.768Z,1624
2017-12-21T10:03:22.332Z,1804
2017-12-21T10:03:47.832Z,1952
2017-12-21T10:04:56.567Z,1932
2017-12-21T10:05:22.031Z,1888
2017-12-21T10:05:47.517Z,1968
2017-12-21T10:06:13.011Z,1944
2017-12-21T10:06:38.500Z,1812
2017-12-21T10:07:04.004Z,1808
2017-12-21T10:07:29.545Z,1824
2017-12-21T10:07:55.028Z,1840
2017-12-21T10:08:20.501Z,1836
2017-12-21T10:08:46.000Z,1832
2017-12-21T10:09:11.485Z,1880
2017-12-21T10:09:36.936Z,1836
2017-12-21T10:10:02.451Z,1848
2017-12-21T10:10:27.935Z,1812
2017-12-21T10:10:53.429Z,1768
2017-12-21T10:11:18.925Z,1672
2017-12-21T10:11:44.441Z,1576
2017-12-21T10:12:09.905Z,1492
2017-12-21T10:12:35.418Z,1388
2017-12-21T10:13:00.929Z,1444
2017-12-21T10:13:26.419Z,1568
2017-12-21T10:13:51.915Z,1584
2017-12-21T10:14:17.411Z,1512
2017-12-21T10:14:42.895Z,1480
2017-12-21T10:15:08.379Z,1524
2017-12-21T10:15:33.906Z,1544
2017-12-21T10:15:59.403Z,1568
2017-12-21T10:16:24.856Z,1452
2017-12-21T10:16:50.406Z,1440
2017-12-21T10:17:15.862Z,1432
2017-12-21T10:17:41.388Z,1492
2017-12-21T10:18:06.855Z,1476
2017-12-21T10:18:32.338Z,1452
2017-12-21T10:18:57.830Z,1412
2017-12-21T10:19:23.329Z,1396
2017-12-21T10:19:48.792Z,1392
2017-12-21T10:20:14.265Z,1360
2017-12-21T10:20:39.719Z,1376
2017-12-21T10:21:05.229Z,1352
2017-12-21T10:21:30.704Z,1368
2017-12-21T10:22:44.546Z,1480
2017-12-21T10:23:10.106Z,1504
2017-12-21T10:23:35.536Z,1432
2017-12-21T10:24:01.038Z,1396
2017-12-21T10:24:26.516Z,1388
2017-12-21T10:24:52.004Z,1340
2017-12-21T10:25:17.456Z,1284
2017-12-21T10:25:42.966Z,1320
2017-12-21T10:26:08.421Z,1380
2017-12-21T10:26:33.922Z,1344
2017-12-21T10:26:59.429Z,1244
2017-12-21T10:27:24.926Z,1204
2017-12-21T10:27:50.412Z,1148
2017-12-21T10:28:15.949Z,1188
2017-12-21T10:28:41.449Z,1188
2017-12-21T10:29:06.951Z,1220
2017-12-21T10:29:32.474Z,1208
2017-12-21T10:29:57.949Z,1172
2017-12-21T10:30:23.451Z,1204
2017-12-21T10:30:48.959Z,1212
2017-12-21T10:31:14.432Z,1236
2017-12-21T10:31:39.949Z,1264
2017-12-21T10:32:05.434Z,1292
2017-12-21T10:32:30.926Z,1344
2017-12-21T10:32:56.439Z,1324
2017-12-21T10:33:21.931Z,1292
2017-12-21T10:33:47.439Z,1364
2017-12-21T10:34:12.961Z,1356
2017-12-21T10:34:38.439Z,1356
2017-12-21T10:35:03.930Z,1252
2017-12-21T10:35:29.444Z,1180
2017-12-21T10:35:54.955Z,1264
2017-12-21T10:36:20.461Z,1300
2017-12-21T10:36:45.920Z,1292
2017-12-21T10:37:11.435Z,1308
2017-12-21T10:37:36.924Z,1408
2017-12-21T10:38:02.396Z,1476
2017-12-21T10:38:27.915Z,1472
2017-12-21T10:38:53.422Z,1464
2017-12-21T10:39:18.903Z,1352
2017-12-21T10:39:44.410Z,1332
2017-12-21T10:40:09.890Z,1336
2017-12-21T10:40:35.371Z,1332
2017-12-21T10:41:00.867Z,1332
2017-12-21T10:41:26.380Z,1384
2017-12-21T10:41:51.880Z,1308
2017-12-21T10:42:17.380Z,1324
2017-12-21T10:42:42.910Z,1384
2017-12-21T10:43:08.381Z,1312
2017-12-21T10:43:33.851Z,1308
2017-12-21T10:44:42.555Z,1128
2017-12-21T10:45:08.045Z,1124
2017-12-21T10:45:33.540Z,1168
2017-12-21T10:45:59.021Z,1136
2017-12-21T10:46:24.528Z,1100
2017-12-21T10:46:50.023Z,1064
2017-12-21T10:47:15.538Z,1068
2017-12-21T10:47:41.031Z,1040
2017-12-21T10:48:06.541Z,980
2017-12-21T10:48:32.013Z,992
2017-12-21T10:48:57.542Z,1032
2017-12-21T10:49:23.053Z,1048
2017-12-21T10:49:48.530Z,1096
2017-12-21T10:50:14.031Z,1096
2017-12-21T10:50:39.530Z,1132
2017-12-21T10:51:05.012Z,1220
2017-12-21T10:51:30.554Z,1184
2017-12-21T10:51:56.053Z,1144
2017-12-21T10:52:21.534Z,1140
2017-12-21T10:52:47.014Z,1148
2017-12-21T10:53:12.502Z,1360
2017-12-21T10:53:38.002Z,1404
2017-12-21T10:54:03.487Z,1420
2017-12-21T10:54:29.038Z,1384
2017-12-21T10:54:54.527Z,1436
2017-12-21T10:55:20.040Z,1444
2017-12-21T10:55:45.529Z,1388
2017-12-21T10:56:11.018Z,1400
2017-12-21T10:56:36.530Z,1448
2017-12-21T10:57:02.017Z,1360
2017-12-21T10:57:27.553Z,1292
2017-12-21T10:57:53.097Z,1384
2017-12-21T10:58:18.619Z,1380
2017-12-21T10:58:44.116Z,1332
2017-12-21T10:59:09.615Z,1348
2017-12-21T10:59:35.067Z,1344
2017-12-21T11:00:00.569Z,1396
2017-12-21T11:00:26.067Z,1404
2017-12-21T11:00:51.595Z,1492
2017-12-21T11:01:17.077Z,1448
2017-12-21T11:01:42.646Z,1420
2017-12-21T11:02:08.191Z,1460
2017-12-21T11:02:33.701Z,1552
2017-12-21T11:02:59.189Z,1556
2017-12-21T11:03:24.685Z,1576
2017-12-21T11:03:50.178Z,1616
2017-12-21T11:04:15.668Z,1688
2017-12-21T11:04:41.153Z,1812
2017-12-21T11:05:06.656Z,1832
2017-12-21T11:05:32.237Z,1852
2017-12-21T11:05:57.837Z,2012
2017-12-21T11:06:23.324Z,1980
2017-12-21T11:06:49.301Z,1908
2017-12-21T11:07:14.859Z,1732
2017-12-21T11:07:40.365Z,1740
2017-12-21T11:08:05.875Z,1804
2017-12-21T11:08:31.351Z,1804
2017-12-21T11:08:56.849Z,1776
2017-12-21T11:09:22.441Z,1856
2017-12-21T11:09:47.946Z,1988
2017-12-21T11:10:13.470Z,2148
2017-12-21T11:10:38.962Z,2156
2017-12-21T11:11:04.453Z,2232
2017-12-21T11:11:29.988Z,2252
2017-12-21T11:11:55.461Z,2260
2017-12-21T11:12:20.942Z,2224
2017-12-21T11:12:46.418Z,2080
2017-12-21T11:13:11.895Z,2168